Time;durP1;ratioP1;P1;durP2;ratioP2;P2;SDS_P1;SDS_P2;PMS_P1;PMS_P2;Temp;Humidity;BMP_temperature;BMP_pressure;BME280_temperature;BME280_humidity;BME280_pressure;Samples;Min_cycle;Max_cycle;Signal;HPM_P1;HPM_P2
2022/11/24 05:00:49;;;;;;;10.00;2.13;;;7.80;99.90;;;;;;5824333;23;20605;-73
2022/11/24 05:03:16;;;;;;;8.70;2.30;;;7.80;99.90;;;;;;4947446;29;20466;-73
2022/11/24 05:05:43;;;;;;;8.60;2.80;;;7.80;99.90;;;;;;4946937;28;20992;-72
2022/11/24 05:08:09;;;;;;;11.13;2.20;;;7.80;99.90;;;;;;4948251;29;20960;-73
2022/11/24 05:10:36;;;;;;;6.27;2.00;;;7.80;99.90;;;;;;4947760;28;20485;-74
2022/11/24 05:13:04;;;;;;;9.03;2.13;;;7.80;99.90;;;;;;4947252;29;21028;-75
2022/11/24 05:15:31;;;;;;;5.90;2.40;;;7.80;99.90;;;;;;4948198;29;20514;-72
2022/11/24 05:17:59;;;;;;;8.20;2.20;;;7.80;99.90;;;;;;4946600;29;20949;-72
2022/11/24 05:20:26;;;;;;;12.23;3.00;;;7.80;99.90;;;;;;4947938;28;20457;-72
2022/11/24 05:22:53;;;;;;;6.30;2.47;;;7.80;99.90;;;;;;4947688;29;20467;-79
2022/11/24 05:25:20;;;;;;;8.63;2.30;;;7.80;99.90;;;;;;4947864;29;20461;-66
2022/11/24 05:27:47;;;;;;;11.20;3.20;;;7.90;99.90;;;;;;4946955;29;20457;-66
2022/11/24 05:30:14;;;;;;;6.50;2.53;;;7.90;99.90;;;;;;4947845;28;20454;-67
2022/11/24 05:32:41;;;;;;;9.90;2.63;;;8.00;99.90;;;;;;4946783;29;20489;-66
2022/11/24 05:35:09;;;;;;;9.07;2.70;;;8.00;99.90;;;;;;4947676;29;20461;-65
2022/11/24 05:37:37;;;;;;;9.60;2.70;;;8.00;99.90;;;;;;4947190;29;21285;-66
2022/11/24 05:40:05;;;;;;;7.87;2.80;;;8.00;99.90;;;;;;4947899;29;21016;-75
2022/11/24 05:42:41;;;;;;;10.77;2.97;;;8.10;99.90;;;;;;4947836;28;20575;-75
2022/11/24 05:45:11;;;;;;;13.30;3.50;;;8.10;99.90;;;;;;4948594;29;20449;-74
2022/11/24 05:47:39;;;;;;;13.00;3.00;;;8.10;99.90;;;;;;4948168;29;20474;-76
2022/11/24 05:50:06;;;;;;;10.07;2.70;;;8.10;99.90;;;;;;4948822;29;20454;-74
2022/11/24 05:52:34;;;;;;;6.63;2.30;;;8.00;99.90;;;;;;4947973;28;20502;-75
2022/11/24 05:55:01;;;;;;;6.90;3.07;;;8.10;99.90;;;;;;4949045;29;20465;-75
2022/11/24 05:57:28;;;;;;;12.30;2.73;;;8.10;99.90;;;;;;4948908;29;20465;-75
2022/11/24 05:59:55;;;;;;;11.40;4.33;;;8.10;99.90;;;;;;4949143;29;20464;-73
2022/11/24 06:02:21;;;;;;;9.40;4.57;;;8.10;99.90;;;;;;4948666;28;20485;-75
2022/11/24 06:04:48;;;;;;;11.63;2.63;;;8.10;99.90;;;;;;4950597;29;20950;-77
2022/11/24 06:07:16;;;;;;;9.37;4.33;;;8.10;99.90;;;;;;4949796;29;21225;-73
2022/11/24 06:09:44;;;;;;;5.37;2.77;;;8.10;99.90;;;;;;4948933;29;20469;-76
2022/11/24 06:12:12;;;;;;;9.03;3.93;;;8.10;99.90;;;;;;4948282;28;20497;-75
2022/11/24 06:14:39;;;;;;;12.20;4.00;;;8.00;99.90;;;;;;4949103;29;20990;-76
2022/11/24 06:17:07;;;;;;;13.10;2.67;;;8.00;99.90;;;;;;4950077;28;20988;-74
2022/11/24 06:19:34;;;;;;;16.80;3.90;;;8.00;99.90;;;;;;4952897;29;20507;-75
2022/11/24 06:22:00;;;;;;;10.43;3.00;;;8.00;99.90;;;;;;4951452;28;20481;-74
2022/11/24 06:24:27;;;;;;;9.80;2.73;;;8.00;99.90;;;;;;4952167;29;20461;-74
2022/11/24 06:26:55;;;;;;;19.63;3.40;;;8.00;99.90;;;;;;4952770;29;20949;-74
2022/11/24 06:29:22;;;;;;;12.33;3.03;;;8.00;99.90;;;;;;4950944;29;20460;-74
2022/11/24 06:31:49;;;;;;;7.97;2.30;;;8.00;99.90;;;;;;4951236;28;20497;-75
2022/11/24 06:34:16;;;;;;;6.10;2.23;;;8.10;99.90;;;;;;4951632;29;20567;-77
2022/11/24 06:36:42;;;;;;;6.13;2.37;;;8.10;99.90;;;;;;4951741;29;20462;-74
2022/11/24 06:39:10;;;;;;;10.00;2.90;;;8.10;99.90;;;;;;4951623;28;20457;-74
2022/11/24 06:41:37;;;;;;;9.93;2.63;;;8.10;99.90;;;;;;4951013;28;20477;-74
2022/11/24 06:44:05;;;;;;;6.57;2.53;;;8.10;99.90;;;;;;4951797;29;20450;-76
2022/11/24 06:46:32;;;;;;;11.33;2.33;;;8.10;99.90;;;;;;4951782;29;20461;-75
2022/11/24 06:48:59;;;;;;;6.90;1.97;;;8.20;99.90;;;;;;4951464;29;20465;-74
2022/11/24 06:51:26;;;;;;;5.53;2.00;;;8.20;99.90;;;;;;4949957;28;20493;-76
2022/11/24 06:53:54;;;;;;;8.17;2.80;;;8.20;99.90;;;;;;4949894;28;20461;-74
2022/11/24 06:56:21;;;;;;;10.27;2.63;;;8.20;99.90;;;;;;4951367;29;20468;-74
2022/11/24 06:58:49;;;;;;;18.07;3.70;;;8.20;99.90;;;;;;4951586;29;20468;-74
2022/11/24 07:01:18;;;;;;;8.10;2.90;;;8.30;99.90;;;;;;4949915;28;20489;-73
2022/11/24 07:03:46;;;;;;;4.83;2.40;;;8.30;99.90;;;;;;4949790;29;20476;-74
2022/11/24 07:06:13;;;;;;;11.17;2.47;;;8.30;99.90;;;;;;4950681;29;20472;-74
2022/11/24 07:08:40;;;;;;;9.10;2.00;;;8.30;99.90;;;;;;4950885;29;20577;-74
2022/11/24 07:11:08;;;;;;;17.33;3.77;;;8.30;99.90;;;;;;4950618;28;20488;-75
2022/11/24 07:13:35;;;;;;;7.40;2.20;;;8.30;99.90;;;;;;4950058;29;20828;-74
2022/11/24 07:16:11;;;;;;;13.23;3.43;;;8.30;99.90;;;;;;4950466;29;20902;-74
2022/11/24 07:18:39;;;;;;;11.60;3.77;;;8.30;99.90;;;;;;4950562;29;20448;-73
2022/11/24 07:21:06;;;;;;;8.47;2.93;;;8.30;99.90;;;;;;4950466;28;20484;-74
2022/11/24 07:23:33;;;;;;;8.77;2.60;;;8.30;99.90;;;;;;4949630;29;20461;-74
2022/11/24 07:26:02;;;;;;;18.40;3.07;;;8.20;99.90;;;;;;4950897;29;21039;-78
2022/11/24 07:28:29;;;;;;;8.50;2.60;;;8.30;99.90;;;;;;4950787;28;20542;-75
2022/11/24 07:30:56;;;;;;;14.30;4.00;;;8.20;99.90;;;;;;4951105;28;21016;-74
2022/11/24 07:33:25;;;;;;;8.00;2.93;;;8.30;99.90;;;;;;4950114;29;20485;-75
2022/11/24 07:35:53;;;;;;;8.13;2.53;;;8.20;99.90;;;;;;4951466;29;21407;-75
2022/11/24 07:38:20;;;;;;;5.90;2.80;;;8.20;99.90;;;;;;4951026;29;21382;-77
2022/11/24 07:40:47;;;;;;;10.60;2.63;;;8.20;99.90;;;;;;4951531;28;20568;-75
2022/11/24 07:43:14;;;;;;;10.70;2.90;;;8.10;99.90;;;;;;4950668;29;21236;-74
2022/11/24 07:45:40;;;;;;;13.10;3.70;;;8.20;99.90;;;;;;4951668;29;20879;-74
2022/11/24 07:48:09;;;;;;;11.97;2.87;;;8.20;99.90;;;;;;4951704;29;20461;-74
2022/11/24 07:50:35;;;;;;;13.77;3.10;;;8.20;99.90;;;;;;4951452;28;20487;-74
2022/11/24 07:53:04;;;;;;;17.00;3.57;;;8.10;99.90;;;;;;4950288;29;20497;-74
2022/11/24 07:55:31;;;;;;;14.40;3.30;;;8.10;99.90;;;;;;4951081;29;20462;-74
2022/11/24 07:57:59;;;;;;;12.90;3.70;;;8.10;99.90;;;;;;4951027;29;20465;-75
2022/11/24 08:00:27;;;;;;;10.53;3.33;;;8.10;99.90;;;;;;4951184;28;20512;-78
2022/11/24 08:02:54;;;;;;;13.83;3.03;;;8.00;99.90;;;;;;4950505;29;20599;-74
2022/11/24 08:05:21;;;;;;;9.30;3.00;;;8.10;99.90;;;;;;4950870;29;20467;-74
2022/11/24 08:07:48;;;;;;;13.80;3.60;;;8.00;99.90;;;;;;4951054;29;20457;-74
2022/11/24 08:10:17;;;;;;;17.10;3.53;;;8.00;99.90;;;;;;4950669;28;20471;-75
2022/11/24 08:12:44;;;;;;;10.00;3.43;;;8.00;99.90;;;;;;4950209;29;20489;-74
2022/11/24 08:15:11;;;;;;;8.27;2.87;;;8.00;99.90;;;;;;4950691;29;20464;-74
2022/11/24 08:17:38;;;;;;;17.43;2.90;;;8.00;99.90;;;;;;4950664;29;20457;-74
2022/11/24 08:20:06;;;;;;;12.80;2.83;;;7.90;99.90;;;;;;4950616;29;20457;-77
2022/11/24 08:22:32;;;;;;;12.03;2.90;;;7.90;99.90;;;;;;4949774;28;20536;-74
2022/11/24 08:24:59;;;;;;;15.23;3.13;;;7.90;99.90;;;;;;4950457;29;20863;-74
2022/11/24 08:27:27;;;;;;;13.43;3.83;;;7.90;99.90;;;;;;4950365;29;20938;-74
2022/11/24 08:29:54;;;;;;;8.40;2.93;;;7.90;99.90;;;;;;4950565;29;20466;-74
2022/11/24 08:32:21;;;;;;;15.30;3.40;;;7.90;99.90;;;;;;4948670;28;20492;-76
2022/11/24 08:34:48;;;;;;;12.50;3.03;;;7.90;99.90;;;;;;4950724;29;21084;-76
2022/11/24 08:37:14;;;;;;;13.00;2.90;;;7.90;99.90;;;;;;4950312;29;20457;-77
2022/11/24 08:39:41;;;;;;;6.17;2.50;;;7.90;99.90;;;;;;4950502;28;20825;-75
2022/11/24 08:42:08;;;;;;;13.00;3.00;;;7.90;99.90;;;;;;4949598;28;20496;-75
2022/11/24 08:44:36;;;;;;;14.00;3.17;;;7.90;99.90;;;;;;4950235;29;20461;-75
2022/11/24 08:47:03;;;;;;;14.83;3.17;;;7.90;99.90;;;;;;4950099;29;20461;-75
2022/11/24 08:49:29;;;;;;;10.40;3.33;;;7.90;99.90;;;;;;4950206;29;20457;-75
2022/11/24 08:51:57;;;;;;;12.47;2.80;;;7.90;99.90;;;;;;4949283;28;20512;-77
2022/11/24 08:54:25;;;;;;;15.07;2.93;;;8.00;99.90;;;;;;4949343;29;20458;-77
2022/11/24 08:56:52;;;;;;;17.43;4.07;;;8.00;99.90;;;;;;4949898;29;20546;-76
2022/11/24 08:59:18;;;;;;;13.23;3.43;;;8.00;99.90;;;;;;4950221;29;20464;-76
2022/11/24 09:01:48;;;;;;;11.60;2.80;;;8.00;99.90;;;;;;4948925;28;20512;-76
2022/11/24 09:04:14;;;;;;;16.67;2.87;;;8.00;99.90;;;;;;4949546;29;20544;-77
2022/11/24 09:06:41;;;;;;;11.10;3.07;;;8.00;99.90;;;;;;4949299;29;20458;-76
2022/11/24 09:09:10;;;;;;;8.70;2.70;;;8.00;99.90;;;;;;4949777;29;20464;-75
2022/11/24 09:11:37;;;;;;;9.43;3.33;;;8.00;99.90;;;;;;4949335;28;20877;-77
2022/11/24 09:14:04;;;;;;;5.50;2.80;;;8.10;99.90;;;;;;4949305;29;20495;-75
2022/11/24 09:16:31;;;;;;;7.70;2.87;;;8.00;99.90;;;;;;4949490;29;20457;-77
2022/11/24 09:19:00;;;;;;;7.37;2.27;;;8.10;99.90;;;;;;4949921;29;20457;-76
2022/11/24 09:21:28;;;;;;;9.53;2.60;;;8.10;99.90;;;;;;4948155;28;20485;-78
2022/11/24 09:23:55;;;;;;;7.97;2.73;;;8.10;99.90;;;;;;4948243;29;20454;-76
2022/11/24 09:26:24;;;;;;;4.53;2.20;;;8.10;99.90;;;;;;4949279;29;20461;-76
2022/11/24 09:28:53;;;;;;;6.27;2.23;;;8.10;99.90;;;;;;4949402;29;21029;-75
2022/11/24 09:31:22;;;;;;;6.80;2.23;;;8.10;99.90;;;;;;4949500;28;20489;-75
2022/11/24 09:33:49;;;;;;;7.50;2.47;;;8.10;99.90;;;;;;4946431;29;20493;-77
2022/11/24 09:36:18;;;;;;;3.50;2.03;;;8.10;99.90;;;;;;4949682;29;20446;-76
2022/11/24 09:38:44;;;;;;;6.57;2.10;;;8.10;99.90;;;;;;4949492;29;20461;-75
2022/11/24 09:41:37;;;;;;;7.07;1.90;;;8.10;99.90;;;;;;4949204;28;20567;-76
2022/11/24 09:44:13;;;;;;;8.33;2.47;;;8.20;99.90;;;;;;4949421;29;20472;-79
2022/11/24 09:46:48;;;;;;;10.80;2.43;;;8.20;99.90;;;;;;4949735;29;20467;-77
2022/11/24 09:49:21;;;;;;;4.53;1.77;;;8.20;99.90;;;;;;4949090;29;20815;-77
2022/11/24 09:51:53;;;;;;;8.80;1.90;;;8.20;99.90;;;;;;4948322;28;20540;-77
2022/11/24 09:54:24;;;;;;;6.70;1.60;;;8.30;99.90;;;;;;4949030;29;20490;-77
2022/11/24 09:56:52;;;;;;;7.67;2.00;;;8.30;99.90;;;;;;4949056;29;20847;-76
2022/11/24 09:59:21;;;;;;;4.80;1.70;;;8.40;99.90;;;;;;4949579;29;20468;-77
2022/11/24 10:01:50;;;;;;;2.70;1.80;;;8.40;99.90;;;;;;4948789;28;20520;-78
2022/11/24 10:04:20;;;;;;;3.40;1.40;;;8.40;99.90;;;;;;4949507;29;20457;-78
2022/11/24 10:06:57;;;;;;;4.37;1.70;;;8.50;99.90;;;;;;4946874;28;20480;-77
2022/11/24 10:09:54;;;;;;;4.90;2.10;;;8.40;99.90;;;;;;4945850;28;20469;-77
2022/11/24 10:12:33;;;;;;;2.00;1.30;;;8.30;99.90;;;;;;4948275;28;20869;-78
2022/11/24 10:15:21;;;;;;;3.30;1.90;;;8.30;99.90;;;;;;4949629;29;20449;-77
2022/11/24 10:18:08;;;;;;;1.93;1.30;;;8.30;99.90;;;;;;4949501;29;20516;-77
2022/11/24 10:20:50;;;;;;;2.40;1.57;;;8.30;99.90;;;;;;4949484;28;20484;-79
2022/11/24 10:23:36;;;;;;;5.27;1.63;;;8.30;99.90;;;;;;4948756;29;20528;-77
2022/11/24 10:26:07;;;;;;;2.10;1.27;;;8.30;99.90;;;;;;4949116;29;20467;-78
2022/11/24 10:28:41;;;;;;;3.90;1.80;;;8.40;99.90;;;;;;4949374;29;20504;-77
2022/11/24 10:31:22;;;;;;;1.37;1.27;;;8.40;99.90;;;;;;4948982;28;20873;-79
2022/11/24 10:33:49;;;;;;;1.70;1.60;;;8.40;99.90;;;;;;4946737;29;21166;-80
2022/11/24 10:36:21;;;;;;;3.30;1.30;;;8.50;99.90;;;;;;4948934;29;20449;-76
2022/11/24 10:38:55;;;;;;;2.87;1.50;;;8.50;99.90;;;;;;4948835;29;20993;-77
2022/11/24 10:41:26;;;;;;;2.50;1.30;;;8.60;99.90;;;;;;4949437;28;20491;-78
2022/11/24 10:43:53;;;;;;;1.10;1.00;;;8.60;99.90;;;;;;4948715;29;20454;-77
2022/11/24 10:46:24;;;;;;;2.60;1.20;;;8.70;99.90;;;;;;4948770;29;21291;-77
2022/11/24 10:48:56;;;;;;;1.10;1.00;;;8.70;99.90;;;;;;4949271;29;20442;-77
2022/11/24 10:51:41;;;;;;;1.60;1.00;;;8.80;99.90;;;;;;4948950;28;20985;-77
2022/11/24 10:54:16;;;;;;;2.10;0.80;;;8.80;99.90;;;;;;4949108;29;20481;-77
2022/11/24 10:56:45;;;;;;;2.43;1.27;;;8.90;99.90;;;;;;4948889;29;20449;-77
2022/11/24 10:59:27;;;;;;;1.90;1.43;;;8.90;99.90;;;;;;4948714;29;20462;-78
2022/11/24 11:01:54;;;;;;;1.90;1.00;;;9.00;99.90;;;;;;4947889;28;20489;-77
2022/11/24 11:04:26;;;;;;;1.23;1.10;;;9.10;99.90;;;;;;4950443;28;20843;-77
2022/11/24 11:06:52;;;;;;;1.20;1.00;;;9.10;99.90;;;;;;4940320;29;20555;-77
2022/11/24 11:09:22;;;;;;;1.10;1.00;;;9.10;99.90;;;;;;4952165;28;20453;-77
2022/11/24 11:11:49;;;;;;;2.00;1.07;;;9.00;99.90;;;;;;4951173;28;20481;-79
2022/11/24 11:14:30;;;;;;;1.73;1.20;;;9.10;99.90;;;;;;4951807;29;20497;-76
2022/11/24 11:16:57;;;;;;;0.90;0.90;;;9.10;99.90;;;;;;4952428;29;20447;-78
2022/11/24 11:19:33;;;;;;;1.20;1.10;;;9.20;99.90;;;;;;4950571;29;20465;-76
2022/11/24 11:22:02;;;;;;;1.10;0.80;;;9.30;99.90;;;;;;4950961;28;20476;-77
2022/11/24 11:24:30;;;;;;;1.63;1.17;;;9.40;99.90;;;;;;4952029;29;20453;-76
2022/11/24 11:27:01;;;;;;;1.23;1.13;;;9.40;99.90;;;;;;4952019;29;20468;-78
2022/11/24 11:29:29;;;;;;;2.30;1.47;;;9.40;99.90;;;;;;4950117;29;20932;-77
2022/11/24 11:31:59;;;;;;;2.40;1.37;;;9.30;99.90;;;;;;4951050;28;20473;-80
2022/11/24 11:34:26;;;;;;;1.50;1.40;;;9.40;99.90;;;;;;4951682;29;20492;-80
2022/11/24 11:36:55;;;;;;;1.07;0.97;;;9.40;99.90;;;;;;4951877;28;20462;-77
2022/11/24 11:39:26;;;;;;;1.53;1.10;;;9.40;99.90;;;;;;4951498;29;20476;-78
2022/11/24 11:42:06;;;;;;;3.23;1.63;;;9.40;99.90;;;;;;4951419;28;20566;-77
2022/11/24 11:44:38;;;;;;;4.30;1.40;;;9.50;99.90;;;;;;4951901;28;20462;-77
2022/11/24 11:47:20;;;;;;;1.90;1.30;;;9.60;99.90;;;;;;4946364;29;20536;-76
2022/11/24 11:49:48;;;;;;;5.07;1.33;;;9.60;99.90;;;;;;4951723;29;20452;-76
2022/11/24 11:52:44;;;;;;;5.60;1.47;;;9.70;99.90;;;;;;4948816;28;20516;-77
2022/11/24 11:55:32;;;;;;;3.20;1.53;;;9.70;99.90;;;;;;4944147;28;20487;-77
2022/11/24 11:58:12;;;;;;;3.87;1.77;;;9.70;99.90;;;;;;4932119;29;20469;-76
2022/11/24 12:00:45;;;;;;;3.40;2.40;;;9.80;99.90;;;;;;4931199;29;20486;-77
2022/11/24 12:03:34;;;;;;;2.37;1.30;;;9.80;99.90;;;;;;4937259;29;20454;-76
2022/11/24 12:06:14;;;;;;;2.87;1.00;;;9.80;99.90;;;;;;4950581;28;20457;-77
2022/11/24 12:08:51;;;;;;;3.97;1.53;;;9.80;99.90;;;;;;4950443;29;20511;-77
2022/11/24 12:11:24;;;;;;;2.20;1.60;;;9.70;99.90;;;;;;4950441;28;20512;-76
2022/11/24 12:14:12;;;;;;;4.37;2.10;;;9.80;99.90;;;;;;4949108;29;20523;-76
2022/11/24 12:16:47;;;;;;;3.00;1.57;;;9.80;99.90;;;;;;4950863;29;20441;-77
2022/11/24 12:19:46;;;;;;;6.23;1.50;;;9.70;99.90;;;;;;4951028;29;20456;-75
2022/11/24 12:22:24;;;;;;;2.93;2.10;;;9.70;99.90;;;;;;4949999;28;20485;-77
2022/11/24 12:24:57;;;;;;;3.10;2.13;;;9.70;99.90;;;;;;4950889;28;20448;-76
2022/11/24 12:27:33;;;;;;;3.60;2.37;;;9.70;99.90;;;;;;4950786;28;20472;-80
2022/11/24 12:30:10;;;;;;;5.47;2.33;;;9.70;99.90;;;;;;4951017;28;20441;-76
2022/11/24 12:32:59;;;;;;;4.00;2.27;;;9.80;99.90;;;;;;4949748;28;20505;-76
2022/11/24 12:35:32;;;;;;;3.87;2.10;;;9.70;99.90;;;;;;4950752;28;20820;-77
2022/11/24 12:38:11;;;;;;;7.13;2.23;;;9.60;99.90;;;;;;4950939;29;20522;-76
2022/11/24 12:40:54;;;;;;;4.73;1.80;;;9.60;99.90;;;;;;4950053;28;20491;-76
2022/11/24 12:43:30;;;;;;;5.90;2.10;;;9.60;99.90;;;;;;4949704;29;20485;-76
2022/11/24 12:46:04;;;;;;;4.17;2.30;;;9.60;99.90;;;;;;4950476;29;20957;-76
2022/11/24 12:48:43;;;;;;;16.50;2.67;;;9.70;99.90;;;;;;4950653;29;20461;-76
2022/11/24 12:51:17;;;;;;;9.30;2.30;;;9.70;99.90;;;;;;4950375;28;20488;-76
2022/11/24 12:53:46;;;;;;;7.63;2.10;;;9.70;99.90;;;;;;4949486;28;20493;-79
2022/11/24 12:56:16;;;;;;;5.30;2.70;;;9.70;99.90;;;;;;4950172;29;20469;-77
2022/11/24 12:58:54;;;;;;;7.13;2.00;;;9.70;99.90;;;;;;4949916;29;20470;-77
2022/11/24 13:01:31;;;;;;;5.80;2.20;;;9.70;99.90;;;;;;4949737;28;20520;-77
2022/11/24 13:04:10;;;;;;;8.77;2.10;;;9.80;99.90;;;;;;4948162;29;21218;-77
2022/11/24 13:06:46;;;;;;;8.10;2.20;;;9.80;99.90;;;;;;4949552;29;20454;-77
2022/11/24 13:09:14;;;;;;;8.23;1.97;;;9.80;99.90;;;;;;4949270;29;20480;-77
2022/11/24 13:11:43;;;;;;;5.50;1.83;;;9.80;99.90;;;;;;4948555;28;20487;-82
2022/11/24 13:14:18;;;;;;;9.23;2.33;;;9.80;99.90;;;;;;4949025;29;20504;-78
2022/11/24 13:16:58;;;;;;;6.20;2.20;;;9.80;99.90;;;;;;4948368;29;20460;-76
2022/11/24 13:19:27;;;;;;;11.73;2.90;;;9.80;99.90;;;;;;4948771;29;20446;-76
2022/11/24 13:22:03;;;;;;;6.13;2.20;;;9.90;99.90;;;;;;4948050;28;21003;-76
2022/11/24 13:24:32;;;;;;;10.63;2.50;;;9.90;99.90;;;;;;4949057;29;20447;-76
2022/11/24 13:27:28;;;;;;;9.90;3.50;;;9.90;99.90;;;;;;4945880;28;20457;-76
2022/11/24 13:29:55;;;;;;;3.93;2.17;;;10.00;99.90;;;;;;4947495;29;20449;-77
2022/11/24 13:32:59;;;;;;;9.90;2.70;;;10.00;99.90;;;;;;4945784;28;21264;-80
2022/11/24 13:35:26;;;;;;;11.23;2.50;;;10.10;99.90;;;;;;4944599;29;20884;-77
2022/11/24 13:37:53;;;;;;;6.67;2.47;;;10.10;99.90;;;;;;4947403;29;20468;-77
2022/11/24 13:40:40;;;;;;;9.40;2.40;;;10.20;99.90;;;;;;4947712;28;20972;-77
2022/11/24 13:43:21;;;;;;;7.90;2.60;;;10.20;99.90;;;;;;4947692;28;20469;-77
2022/11/24 13:45:50;;;;;;;6.57;3.13;;;10.20;99.90;;;;;;4949168;29;20461;-76
2022/11/24 13:48:58;;;;;;;13.10;2.90;;;10.30;99.90;;;;;;4949406;28;20512;-76
2022/11/24 13:51:25;;;;;;;10.37;1.97;;;10.30;99.90;;;;;;4948748;28;20847;-78
2022/11/24 13:53:55;;;;;;;8.60;2.60;;;10.30;99.90;;;;;;4950096;29;20497;-77
2022/11/24 13:56:29;;;;;;;10.90;2.73;;;10.40;99.90;;;;;;4950217;29;20485;-77
2022/11/24 13:58:58;;;;;;;6.17;2.00;;;10.40;99.90;;;;;;4951020;29;20464;-78
2022/11/24 14:01:27;;;;;;;9.30;2.70;;;10.50;99.90;;;;;;4950550;28;20489;-77
2022/11/24 14:04:27;;;;;;;9.07;3.20;;;10.50;99.90;;;;;;4948136;29;20528;-77
2022/11/24 14:07:00;;;;;;;7.57;2.63;;;10.50;99.90;;;;;;4947990;29;20484;-80
2022/11/24 14:09:30;;;;;;;12.73;3.47;;;10.50;99.90;;;;;;4950394;29;20442;-79
2022/11/24 14:12:03;;;;;;;8.17;2.80;;;10.50;99.90;;;;;;4949775;28;20481;-78
2022/11/24 14:14:30;;;;;;;6.53;2.70;;;10.50;99.90;;;;;;4950638;29;20501;-78
2022/11/24 14:17:17;;;;;;;6.80;2.50;;;10.60;99.90;;;;;;4951553;29;20461;-79
2022/11/24 14:19:46;;;;;;;10.30;2.80;;;10.60;99.90;;;;;;4951092;29;20442;-77
2022/11/24 14:22:17;;;;;;;4.27;2.30;;;10.60;99.90;;;;;;4949566;28;20490;-77
2022/11/24 14:24:45;;;;;;;6.27;2.50;;;10.70;99.90;;;;;;4950843;29;20450;-76
2022/11/24 14:27:15;;;;;;;9.20;3.10;;;10.70;99.90;;;;;;4945491;29;20466;-78
2022/11/24 14:29:53;;;;;;;8.30;2.50;;;10.70;99.90;;;;;;4951666;29;20512;-79
2022/11/24 14:32:21;;;;;;;13.07;3.17;;;10.60;99.90;;;;;;4950317;28;20477;-76
2022/11/24 14:34:49;;;;;;;6.70;2.70;;;10.70;99.90;;;;;;4950303;29;20525;-77
2022/11/24 14:37:18;;;;;;;8.03;2.50;;;10.60;99.90;;;;;;4949872;28;20458;-78
2022/11/24 14:39:44;;;;;;;8.97;2.33;;;10.60;99.90;;;;;;4951604;29;20476;-77
2022/11/24 14:42:18;;;;;;;6.33;2.90;;;10.60;99.90;;;;;;4951485;28;20492;-76
2022/11/24 14:44:48;;;;;;;9.87;3.17;;;10.60;99.90;;;;;;4952147;29;21025;-77
2022/11/24 14:47:21;;;;;;;7.30;2.80;;;10.60;99.90;;;;;;4951335;29;20449;-77
2022/11/24 14:49:48;;;;;;;8.73;2.77;;;10.70;99.90;;;;;;4951873;29;20469;-79
2022/11/24 14:52:19;;;;;;;6.90;2.43;;;10.70;99.90;;;;;;4951203;28;20491;-77
2022/11/24 14:54:49;;;;;;;6.00;2.60;;;10.70;99.90;;;;;;4950194;29;20886;-77
2022/11/24 14:57:30;;;;;;;10.77;2.67;;;10.70;99.90;;;;;;4951000;29;20457;-77
2022/11/24 15:00:18;;;;;;;9.80;2.57;;;10.70;99.90;;;;;;4951483;29;20537;-77
2022/11/24 15:02:48;;;;;;;9.27;2.70;;;10.60;99.90;;;;;;4953293;28;20457;-78
2022/11/24 15:05:15;;;;;;;12.03;2.50;;;10.60;99.90;;;;;;4953794;29;20484;-77
2022/11/24 15:07:46;;;;;;;9.43;3.57;;;10.60;99.90;;;;;;4953226;29;20464;-78
2022/11/24 15:10:23;;;;;;;8.53;3.00;;;10.60;99.90;;;;;;4953656;29;20441;-78
2022/11/24 15:12:53;;;;;;;11.00;3.47;;;10.60;99.90;;;;;;4952567;29;20437;-78
2022/11/24 15:15:26;;;;;;;14.83;3.60;;;10.50;99.90;;;;;;4953483;29;20499;-78
2022/11/24 15:17:57;;;;;;;11.17;3.97;;;10.40;99.90;;;;;;4952810;29;20457;-78
2022/11/24 15:20:28;;;;;;;12.63;3.70;;;10.40;99.90;;;;;;4950575;28;20942;-77
2022/11/24 15:23:25;;;;;;;10.73;5.30;;;10.40;99.90;;;;;;4950160;28;20469;-78
2022/11/24 15:25:53;;;;;;;8.93;3.40;;;10.40;99.90;;;;;;4951472;28;21386;-77
2022/11/24 15:28:24;;;;;;;13.20;2.70;;;10.40;99.90;;;;;;4952207;29;20458;-77
2022/11/24 15:30:52;;;;;;;10.70;3.30;;;10.30;99.90;;;;;;4950149;28;20563;-78
2022/11/24 15:33:20;;;;;;;8.30;3.27;;;10.30;99.90;;;;;;4951368;29;20464;-77
2022/11/24 15:35:47;;;;;;;9.87;3.50;;;10.20;99.90;;;;;;4952482;29;20530;-78
2022/11/24 15:38:15;;;;;;;12.30;3.40;;;10.10;99.90;;;;;;4952088;29;20461;-78
2022/11/24 15:40:45;;;;;;;9.27;3.13;;;10.10;99.90;;;;;;4951467;28;20489;-77
2022/11/24 15:43:22;;;;;;;13.57;4.23;;;10.10;99.90;;;;;;4949786;29;21337;-77
2022/11/24 15:45:49;;;;;;;6.27;3.67;;;10.10;99.90;;;;;;4950694;29;20459;-77
2022/11/24 15:48:16;;;;;;;10.43;3.67;;;10.10;99.90;;;;;;4949578;29;20461;-77
2022/11/24 15:50:42;;;;;;;10.93;3.93;;;10.20;99.90;;;;;;4948166;28;20485;-76
2022/11/24 15:53:17;;;;;;;11.77;3.93;;;10.20;99.90;;;;;;4949738;29;20516;-76
2022/11/24 15:55:45;;;;;;;11.30;3.80;;;10.20;99.90;;;;;;4950365;29;20499;-76
2022/11/24 15:58:13;;;;;;;8.93;3.53;;;10.20;99.90;;;;;;4949860;29;20463;-77
2022/11/24 16:00:40;;;;;;;11.23;3.67;;;10.20;99.90;;;;;;4948974;28;21006;-77
2022/11/24 16:03:07;;;;;;;12.37;5.00;;;10.30;99.90;;;;;;4948273;29;20465;-76
2022/11/24 16:05:34;;;;;;;14.80;5.00;;;10.30;99.90;;;;;;4950148;29;20461;-77
2022/11/24 16:08:00;;;;;;;10.97;4.40;;;10.30;99.90;;;;;;4949800;29;20834;-73
2022/11/24 16:10:31;;;;;;;11.60;4.87;;;10.30;99.90;;;;;;4949312;28;20464;-73
2022/11/24 16:12:59;;;;;;;9.97;4.40;;;10.30;99.90;;;;;;4948622;29;20524;-73
2022/11/24 16:15:26;;;;;;;10.10;3.90;;;10.30;99.90;;;;;;4948947;29;20493;-73
2022/11/24 16:17:53;;;;;;;10.07;3.90;;;10.40;99.90;;;;;;4949375;29;20566;-73
2022/11/24 16:20:20;;;;;;;11.50;3.90;;;10.40;99.90;;;;;;4949433;28;20543;-73
2022/11/24 16:22:47;;;;;;;14.03;5.30;;;10.40;99.90;;;;;;4948530;29;20472;-74
2022/11/24 16:25:14;;;;;;;10.30;5.00;;;10.50;99.90;;;;;;4949069;29;20488;-73
2022/11/24 16:27:41;;;;;;;10.67;4.17;;;10.40;99.90;;;;;;4948939;29;20962;-74
2022/11/24 16:30:12;;;;;;;9.30;4.07;;;10.40;99.90;;;;;;4948788;29;20962;-74
2022/11/24 16:32:39;;;;;;;11.07;4.20;;;10.40;99.90;;;;;;4948227;28;20484;-75
2022/11/24 16:35:06;;;;;;;12.43;5.07;;;10.40;99.90;;;;;;4948884;29;20497;-74
2022/11/24 16:37:33;;;;;;;22.67;10.97;;;10.40;99.90;;;;;;4948513;28;20954;-74
2022/11/24 16:40:01;;;;;;;14.37;7.13;;;10.40;99.90;;;;;;4948958;29;20543;-74
2022/11/24 16:42:28;;;;;;;24.60;13.80;;;10.40;99.90;;;;;;4947986;28;20536;-74
2022/11/24 16:44:54;;;;;;;17.57;9.10;;;10.40;99.90;;;;;;4948597;29;20464;-75
2022/11/24 16:47:23;;;;;;;18.67;9.60;;;10.40;99.90;;;;;;4948396;29;20468;-72
2022/11/24 16:49:50;;;;;;;21.93;12.40;;;10.30;99.90;;;;;;4948778;29;20514;-72
2022/11/24 16:52:17;;;;;;;27.43;15.33;;;10.30;99.90;;;;;;4947911;28;20482;-74
2022/11/24 16:54:45;;;;;;;20.13;11.57;;;10.30;99.90;;;;;;4948453;29;20499;-73
2022/11/24 16:57:12;;;;;;;20.80;9.98;;;10.30;99.90;;;;;;4948307;29;20491;-73
2022/11/24 16:59:39;;;;;;;19.33;9.53;;;10.30;99.90;;;;;;4948297;29;20218;-72
2022/11/24 17:02:06;;;;;;;19.65;9.98;;;10.30;99.90;;;;;;4946262;28;20451;-73
2022/11/24 17:04:34;;;;;;;24.23;10.93;;;10.30;99.90;;;;;;4948132;29;20568;-72
2022/11/24 17:07:01;;;;;;;19.97;10.50;;;10.30;99.90;;;;;;4948306;28;20468;-73
2022/11/24 17:09:27;;;;;;;21.37;9.77;;;10.30;99.90;;;;;;4948589;28;20470;-72
2022/11/24 17:11:54;;;;;;;18.47;9.63;;;10.30;99.90;;;;;;4947864;28;20488;-73
2022/11/24 17:14:21;;;;;;;11.47;7.00;;;10.20;99.90;;;;;;4947722;29;21006;-73
2022/11/24 17:16:48;;;;;;;13.90;9.10;;;10.20;99.90;;;;;;4948372;29;20462;-73
2022/11/24 17:19:14;;;;;;;18.67;9.60;;;10.10;99.90;;;;;;4948405;29;20466;-73
2022/11/24 17:21:43;;;;;;;17.73;10.63;;;10.10;99.90;;;;;;4947388;28;21218;-73
2022/11/24 17:24:14;;;;;;;17.50;10.53;;;10.10;99.90;;;;;;4948070;29;20471;-73
2022/11/24 17:26:41;;;;;;;23.93;13.40;;;10.00;99.90;;;;;;4948057;28;20441;-72
2022/11/24 17:29:08;;;;;;;20.97;13.30;;;9.90;99.90;;;;;;4947873;29;20989;-72
2022/11/24 17:31:35;;;;;;;21.10;12.63;;;9.80;99.90;;;;;;4947345;28;20584;-72
2022/11/24 17:34:03;;;;;;;23.00;13.00;;;9.80;99.90;;;;;;4948022;29;20473;-73
2022/11/24 17:36:32;;;;;;;24.87;9.87;;;9.70;99.90;;;;;;4947548;29;20850;-73
2022/11/24 17:39:03;;;;;;;19.07;10.13;;;9.80;99.90;;;;;;4947706;28;20465;-73
2022/11/24 17:41:30;;;;;;;23.33;11.00;;;9.70;99.90;;;;;;4947776;28;21006;-73
2022/11/24 17:43:57;;;;;;;16.27;8.93;;;9.70;99.90;;;;;;4946870;29;20988;-73
2022/11/24 17:46:24;;;;;;;14.37;8.83;;;9.60;99.90;;;;;;4947953;29;20454;-73
2022/11/24 17:48:51;;;;;;;16.43;9.37;;;9.60;99.90;;;;;;4947880;29;20464;-73
2022/11/24 17:51:20;;;;;;;19.50;10.00;;;9.50;99.90;;;;;;4947703;28;20485;-73
2022/11/24 17:53:49;;;;;;;21.40;10.80;;;9.50;99.90;;;;;;4944074;29;20944;-73
2022/11/24 17:56:20;;;;;;;17.33;10.57;;;9.50;99.90;;;;;;4948107;28;20292;-73
2022/11/24 17:58:48;;;;;;;15.67;9.70;;;9.50;99.90;;;;;;4947784;28;20448;-73
2022/11/24 18:01:15;;;;;;;17.03;10.00;;;9.40;99.90;;;;;;4947538;28;20500;-72
2022/11/24 18:03:42;;;;;;;19.67;10.63;;;9.40;99.90;;;;;;4945334;28;20465;-73
2022/11/24 18:06:10;;;;;;;19.70;10.00;;;9.30;99.90;;;;;;4947653;28;20922;-74